Bei Facebook empfehlenBei Twitter postenGoogle plusPinterest

Das Wetter im Erzgebirge am 12.09.2015

Wetter und Klima am 12.09.2015 Holzhau im Erzgebirge (630m ü.NN)
Letzte gemessene Temperatur und Uhrzeit der Messung23:45:00 Uhr13.30 °C
Temperatur (Maximum / Höchstwert) und Uhrzeit der Messung16:15:00 Uhr19.30 °C
Temperatur (Minimum / Tiefstwert) und Uhrzeit der Messung03:45:009.20 °C
Errechneter Absolutwert der Temperaturschwankungen zwischen Tmin und Tmax des Tages10.10 K
Errechnete Tagesmitteltemperatur13.57500 °C
Gesamt - Niederschlag des Tages (in flüssiger Form)0.52 Liter / m²
Luftdruck (Maximum / Höchstwert) und Zeitpunkt der Messung14:30:00 Uhr1016.00 hPa
Luftdruck (Minimum / Tiefstwert) und Zeitpunkt der Messung23:45:00 Uhr1014.20 hPa
Errechneter Absolutwert der Luftdruckschwankungen des Tages1.80 hPa
Höchste gemessene Windgeschwindigkeit und Uhrzeit der Messung11:00:00 Uhr10.44 km/h
Errechnete Windhäufigkeit in Relation zu den Messwerten des Tages33.33333 %
Niedrigste Windkühle (Windchill) und Zeitpunkt der Messung03:45:00 Uhr9.20 °C
Taupunkt (Maximum / Höchstwert) und Uhrzeit der Messung12:00:00 Uhr14.40 °C
Taupunkt (Minimum / Tiefstwert) und Uhrzeit der Messung03:45:008.30 °C
Anzahl der automatisch eingelesenen Messwerte 96

Detaillierte Wetter- und Klima- Messwerte für den 12.09.2015 in Holzhau im Erzgebirge (630m ü.NN)
ZeitTemperaturLuftdruckRel. LuftfeuchteWindWindrichtungWindchillTaupunktNiederschlag l/m²
23:45:0013.30 °C1014.20 hPa86.00 %11.00 °C0.52
23:30:0013.10 °C1014.30 hPa86.00 %2.52 km/hO13.10 °C10.80 °C0.52
23:15:0012.90 °C1014.20 hPa86.00 %10.60 °C0.52
23:00:0012.90 °C1014.70 hPa86.00 %8.64 km/hO12.30 °C10.60 °C0.52
22:45:0012.90 °C1014.70 hPa85.00 %10.40 °C0.52
22:30:0013.00 °C1014.80 hPa85.00 %10.50 °C0.52
22:15:0013.30 °C1014.90 hPa85.00 %10.80 °C0.52
22:00:0013.30 °C1014.90 hPa85.00 %10.80 °C0.52
21:45:0013.10 °C1014.90 hPa85.00 %8.28 km/hNNW12.60 °C10.60 °C0.52
21:30:0012.80 °C1014.90 hPa85.00 %1.80 km/hSO12.80 °C10.30 °C0.52
21:15:0012.70 °C1015.10 hPa84.00 %10.10 °C0.52
21:00:0012.80 °C1015.00 hPa84.00 %10.20 °C0.52
20:45:0012.90 °C1015.00 hPa84.00 %10.30 °C0.52
20:30:0013.00 °C1015.00 hPa83.00 %10.20 °C0.52
20:15:0013.30 °C1015.10 hPa82.00 %10.30 °C0.52
20:00:0013.40 °C1015.20 hPa82.00 %10.40 °C0.52
19:45:0013.80 °C1014.90 hPa80.00 %3.24 km/hOSO13.80 °C10.40 °C0.52
19:30:0014.40 °C1015.10 hPa79.00 %10.80 °C0.52
19:15:0014.90 °C1015.10 hPa77.00 %10.90 °C0.52
19:00:0015.70 °C1015.20 hPa76.00 %11.50 °C0.52
18:45:0016.40 °C1015.10 hPa75.00 %12.00 °C0.52
18:30:0017.10 °C1015.30 hPa73.00 %12.20 °C0.52
18:15:0017.60 °C1015.30 hPa73.00 %12.70 °C0.52
18:00:0017.90 °C1015.30 hPa71.00 %2.88 km/hSSO17.90 °C12.60 °C0.52
17:45:0018.30 °C1015.50 hPa70.00 %12.70 °C0.52
17:30:0018.70 °C1015.60 hPa69.00 %4.32 km/hOSO18.70 °C12.90 °C0.52
17:15:0018.80 °C1015.70 hPa69.00 %5.40 km/hOSO19.70 °C13.00 °C0.52
17:00:0018.80 °C1015.60 hPa69.00 %4.32 km/hSO18.80 °C13.00 °C0.52
16:45:0018.80 °C1015.70 hPa68.00 %1.80 km/hSSO18.80 °C12.80 °C0.52
16:30:0019.00 °C1015.80 hPa68.00 %4.32 km/hSSW19.00 °C13.00 °C0.52
16:15:0019.30 °C1015.80 hPa68.00 %13.20 °C0.52
16:00:0018.80 °C1015.70 hPa68.00 %12.80 °C0.52
15:45:0018.90 °C1015.70 hPa67.00 %12.60 °C0.52
15:30:0018.80 °C1015.60 hPa68.00 %9.00 km/hSSO19.20 °C12.80 °C0.52
15:15:0018.60 °C1015.80 hPa68.00 %8.28 km/hOSO19.10 °C12.60 °C0.52
15:00:0018.80 °C1015.80 hPa69.00 %8.64 km/hSO19.30 °C13.00 °C0.52
14:45:0018.60 °C1015.80 hPa71.00 %13.20 °C0.52
14:30:0018.30 °C1016.00 hPa73.00 %2.16 km/hS18.30 °C13.40 °C0.52
14:15:0018.20 °C1016.00 hPa73.00 %10.08 km/hSSW18.40 °C13.30 °C0.52
14:00:0018.10 °C1015.90 hPa72.00 %7.20 km/hN18.60 °C13.00 °C0.52
13:45:0018.10 °C1015.90 hPa73.00 %5.76 km/hSW18.80 °C13.20 °C0.52
13:30:0018.40 °C1015.90 hPa74.00 %9.72 km/hSO18.70 °C13.70 °C0.52
13:15:0018.20 °C1015.80 hPa75.00 %13.70 °C0.52
13:00:0018.20 °C1015.80 hPa76.00 %4.68 km/hONO18.20 °C13.90 °C0.52
12:45:0017.90 °C1015.80 hPa77.00 %3.60 km/hSSO17.90 °C13.80 °C0.52
12:30:0017.80 °C1015.80 hPa79.00 %2.52 km/hSW17.80 °C14.10 °C0.52
12:15:0017.10 °C1015.70 hPa81.00 %2.52 km/hO17.10 °C13.80 °C0.52
12:00:0017.10 °C1015.80 hPa84.00 %14.40 °C0.52
11:45:0016.60 °C1016.00 hPa86.00 %5.40 km/hSSW17.20 °C14.20 °C0.52
11:30:0015.90 °C1015.80 hPa88.00 %13.90 °C0.52
11:15:0015.50 °C1016.00 hPa90.00 %2.16 km/hOSO15.50 °C13.90 °C0.52
11:00:0014.90 °C1016.00 hPa92.00 %10.44 km/hSO14.40 °C13.60 °C0.52
10:45:0014.10 °C1016.00 hPa92.00 %12.80 °C0.52
10:30:0013.90 °C1016.00 hPa93.00 %4.32 km/hO13.90 °C12.80 °C0.52
10:15:0012.90 °C1015.90 hPa94.00 %12.00 °C0.52
10:00:0013.20 °C1016.00 hPa94.00 %6.48 km/hSO13.00 °C12.30 °C0.52
09:45:0013.10 °C1015.80 hPa95.00 %6.12 km/hSSO13.00 °C12.30 °C0.52
09:30:0012.50 °C1015.70 hPa95.00 %11.70 °C0.52
09:15:0011.90 °C1015.70 hPa95.00 %11.10 °C0.52
09:00:0011.80 °C1015.70 hPa95.00 %11.00 °C0.52
08:45:0011.60 °C1015.70 hPa95.00 %6.48 km/hSO11.20 °C10.80 °C0.52
08:30:0011.50 °C1015.60 hPa95.00 %10.70 °C0.52
08:15:0011.40 °C1015.40 hPa95.00 %10.60 °C 
08:00:0010.90 °C1015.30 hPa95.00 %10.10 °C 
07:45:0010.60 °C1015.30 hPa95.00 %9.80 °C 
07:30:0010.40 °C1015.30 hPa95.00 %9.60 °C 
07:15:0010.30 °C1015.20 hPa95.00 %9.50 °C 
07:00:0010.30 °C1015.30 hPa95.00 %9.50 °C 
06:45:0010.30 °C1015.30 hPa95.00 %9.50 °C 
06:30:0010.40 °C1015.20 hPa95.00 %9.60 °C 
06:15:0010.40 °C1015.20 hPa95.00 %9.60 °C 
06:00:0010.40 °C1015.20 hPa95.00 %9.60 °C 
05:45:0010.30 °C1015.10 hPa95.00 %9.50 °C 
05:30:0010.20 °C1015.10 hPa95.00 %9.40 °C 
05:15:009.90 °C1015.00 hPa94.00 %9.00 °C 
05:00:009.80 °C1015.10 hPa94.00 %8.90 °C 
04:45:009.50 °C1015.20 hPa94.00 %8.60 °C 
04:30:009.50 °C1015.00 hPa94.00 %8.60 °C 
04:15:009.50 °C1015.00 hPa94.00 %8.60 °C 
04:00:009.30 °C1015.10 hPa94.00 %8.40 °C 
03:45:009.20 °C1015.30 hPa94.00 %8.30 °C 
03:30:009.20 °C1015.30 hPa94.00 %8.30 °C 
03:15:009.30 °C1015.20 hPa94.00 %8.40 °C 
03:00:009.30 °C1015.20 hPa94.00 %8.40 °C 
02:45:009.30 °C1015.50 hPa94.00 %8.40 °C 
02:30:009.50 °C1015.50 hPa93.00 %8.40 °C 
02:15:009.60 °C1015.30 hPa93.00 %8.50 °C 
02:00:009.60 °C1015.50 hPa93.00 %8.50 °C 
01:45:009.60 °C1015.50 hPa93.00 %8.50 °C 
01:30:009.50 °C1015.60 hPa93.00 %8.40 °C 
01:15:009.50 °C1015.40 hPa93.00 %8.40 °C 
01:00:009.50 °C1015.80 hPa93.00 %8.40 °C 
00:45:009.60 °C1015.70 hPa92.00 %8.40 °C 
00:30:009.80 °C1015.90 hPa92.00 %4.68 km/hSO9.80 °C8.60 °C 
00:15:009.90 °C1015.70 hPa92.00 %8.70 °C 
00:00:009.90 °C1015.80 hPa92.00 %4.32 km/hOSO9.90 °C8.70 °C 

Permanenter Link zu dieser Seite: Wetter im Erzgebirge am 12.09.2015
Performance-Info: Die Erstellung der Seite / Statistik(en) / Tabelle(n) erforderte 5 Datenbankserver-Abfrage(n) und dauerte 98 Millisekunden. (Dieser Messwert ist von der Gesamt-Auslastung des Servers abhängig.)
Erzgebirge - Wetter | Erzgebirge - Wetter (Mobilgeräte) | Komplette Klimadatenbank